sensor_id;sensor_type;location;lat;lon;timestamp;P1;durP1;ratioP1;P2;durP2;ratioP2
14181;SDS011;7171;50.936;6.764;2022-09-03T00:00:53;0.90;;;0.70;;
14181;SDS011;7171;50.936;6.764;2022-09-03T00:03:24;0.75;;;0.70;;
14181;SDS011;7171;50.936;6.764;2022-09-03T00:06:02;1.10;;;0.98;;
14181;SDS011;7171;50.936;6.764;2022-09-03T00:08:36;0.80;;;0.80;;
14181;SDS011;7171;50.936;6.764;2022-09-03T00:11:09;1.00;;;0.90;;
14181;SDS011;7171;50.936;6.764;2022-09-03T00:13:41;1.15;;;0.98;;
14181;SDS011;7171;50.936;6.764;2022-09-03T00:16:11;0.82;;;0.82;;
14181;SDS011;7171;50.936;6.764;2022-09-03T00:18:44;2.25;;;0.98;;
14181;SDS011;7171;50.936;6.764;2022-09-03T00:21:16;1.02;;;0.95;;
14181;SDS011;7171;50.936;6.764;2022-09-03T00:23:47;2.03;;;0.80;;
14181;SDS011;7171;50.936;6.764;2022-09-03T00:26:17;0.80;;;0.80;;
14181;SDS011;7171;50.936;6.764;2022-09-03T00:28:51;0.90;;;0.90;;
14181;SDS011;7171;50.936;6.764;2022-09-03T00:31:24;1.10;;;0.90;;
14181;SDS011;7171;50.936;6.764;2022-09-03T00:33:55;1.05;;;0.93;;
14181;SDS011;7171;50.936;6.764;2022-09-03T00:36:30;0.98;;;0.90;;
14181;SDS011;7171;50.936;6.764;2022-09-03T00:39:01;0.73;;;0.73;;
14181;SDS011;7171;50.936;6.764;2022-09-03T00:41:29;1.20;;;1.10;;
14181;SDS011;7171;50.936;6.764;2022-09-03T00:44:12;1.45;;;0.90;;
14181;SDS011;7171;50.936;6.764;2022-09-03T00:46:59;1.00;;;0.90;;
14181;SDS011;7171;50.936;6.764;2022-09-03T00:49:38;0.88;;;0.88;;
14181;SDS011;7171;50.936;6.764;2022-09-03T00:52:13;0.90;;;0.88;;
14181;SDS011;7171;50.936;6.764;2022-09-03T00:54:51;1.00;;;0.90;;
14181;SDS011;7171;50.936;6.764;2022-09-03T00:57:28;0.80;;;0.80;;
14181;SDS011;7171;50.936;6.764;2022-09-03T01:00:03;0.85;;;0.85;;
14181;SDS011;7171;50.936;6.764;2022-09-03T01:02:36;0.75;;;0.73;;
14181;SDS011;7171;50.936;6.764;2022-09-03T01:05:20;1.45;;;1.00;;
14181;SDS011;7171;50.936;6.764;2022-09-03T01:08:03;0.75;;;0.75;;
14181;SDS011;7171;50.936;6.764;2022-09-03T01:10:41;1.05;;;0.95;;
14181;SDS011;7171;50.936;6.764;2022-09-03T01:13:19;0.80;;;0.80;;
14181;SDS011;7171;50.936;6.764;2022-09-03T01:15:51;1.13;;;0.85;;
14181;SDS011;7171;50.936;6.764;2022-09-03T01:18:30;0.88;;;0.85;;
14181;SDS011;7171;50.936;6.764;2022-09-03T01:21:09;1.02;;;0.90;;
14181;SDS011;7171;50.936;6.764;2022-09-03T01:23:55;0.70;;;0.70;;
14181;SDS011;7171;50.936;6.764;2022-09-03T01:26:45;0.95;;;0.80;;
14181;SDS011;7171;50.936;6.764;2022-09-03T01:29:23;1.00;;;0.90;;
14181;SDS011;7171;50.936;6.764;2022-09-03T01:31:57;1.10;;;0.90;;
14181;SDS011;7171;50.936;6.764;2022-09-03T01:34:34;0.90;;;0.70;;
14181;SDS011;7171;50.936;6.764;2022-09-03T01:37:13;0.82;;;0.80;;
14181;SDS011;7171;50.936;6.764;2022-09-03T01:39:48;0.80;;;0.80;;
14181;SDS011;7171;50.936;6.764;2022-09-03T01:42:24;0.82;;;0.80;;
14181;SDS011;7171;50.936;6.764;2022-09-03T01:45:05;1.10;;;1.00;;
14181;SDS011;7171;50.936;6.764;2022-09-03T01:47:48;0.70;;;0.70;;
14181;SDS011;7171;50.936;6.764;2022-09-03T01:50:32;2.35;;;1.05;;
14181;SDS011;7171;50.936;6.764;2022-09-03T01:53:06;1.10;;;1.00;;
14181;SDS011;7171;50.936;6.764;2022-09-03T01:55:42;1.05;;;0.95;;
14181;SDS011;7171;50.936;6.764;2022-09-03T01:58:15;0.88;;;0.80;;
14181;SDS011;7171;50.936;6.764;2022-09-03T02:00:47;0.70;;;0.70;;
14181;SDS011;7171;50.936;6.764;2022-09-03T02:03:16;0.93;;;0.93;;
14181;SDS011;7171;50.936;6.764;2022-09-03T02:05:43;0.70;;;0.70;;
14181;SDS011;7171;50.936;6.764;2022-09-03T02:08:11;0.80;;;0.80;;
14181;SDS011;7171;50.936;6.764;2022-09-03T02:10:39;1.15;;;0.80;;
14181;SDS011;7171;50.936;6.764;2022-09-03T02:13:09;0.70;;;0.70;;
14181;SDS011;7171;50.936;6.764;2022-09-03T02:15:39;0.82;;;0.82;;
14181;SDS011;7171;50.936;6.764;2022-09-03T02:18:12;0.73;;;0.73;;
14181;SDS011;7171;50.936;6.764;2022-09-03T02:20:43;0.85;;;0.82;;
14181;SDS011;7171;50.936;6.764;2022-09-03T02:23:12;1.33;;;1.10;;
14181;SDS011;7171;50.936;6.764;2022-09-03T02:25:40;0.90;;;0.90;;
14181;SDS011;7171;50.936;6.764;2022-09-03T02:28:10;1.10;;;1.00;;
14181;SDS011;7171;50.936;6.764;2022-09-03T02:30:38;1.10;;;0.85;;
14181;SDS011;7171;50.936;6.764;2022-09-03T02:33:04;0.70;;;0.70;;
14181;SDS011;7171;50.936;6.764;2022-09-03T02:35:33;1.25;;;0.88;;
14181;SDS011;7171;50.936;6.764;2022-09-03T02:38:07;0.90;;;0.80;;
14181;SDS011;7171;50.936;6.764;2022-09-03T02:40:35;2.13;;;1.10;;
14181;SDS011;7171;50.936;6.764;2022-09-03T02:43:02;0.70;;;0.70;;
14181;SDS011;7171;50.936;6.764;2022-09-03T02:45:30;1.10;;;1.00;;
14181;SDS011;7171;50.936;6.764;2022-09-03T02:47:57;0.77;;;0.77;;
14181;SDS011;7171;50.936;6.764;2022-09-03T02:50:25;0.90;;;0.85;;
14181;SDS011;7171;50.936;6.764;2022-09-03T02:52:53;1.33;;;0.90;;
14181;SDS011;7171;50.936;6.764;2022-09-03T02:55:20;1.15;;;1.05;;
14181;SDS011;7171;50.936;6.764;2022-09-03T02:57:47;0.80;;;0.73;;
14181;SDS011;7171;50.936;6.764;2022-09-03T03:00:14;0.73;;;0.73;;
14181;SDS011;7171;50.936;6.764;2022-09-03T03:02:42;0.95;;;0.70;;
14181;SDS011;7171;50.936;6.764;2022-09-03T03:05:11;0.75;;;0.75;;
14181;SDS011;7171;50.936;6.764;2022-09-03T03:07:47;0.70;;;0.70;;
14181;SDS011;7171;50.936;6.764;2022-09-03T03:10:15;1.02;;;0.90;;
14181;SDS011;7171;50.936;6.764;2022-09-03T03:12:42;1.90;;;0.75;;
14181;SDS011;7171;50.936;6.764;2022-09-03T03:15:09;1.48;;;0.90;;
14181;SDS011;7171;50.936;6.764;2022-09-03T03:17:36;1.20;;;1.10;;
14181;SDS011;7171;50.936;6.764;2022-09-03T03:20:03;0.75;;;0.75;;
14181;SDS011;7171;50.936;6.764;2022-09-03T03:22:30;1.08;;;0.95;;
14181;SDS011;7171;50.936;6.764;2022-09-03T03:24:57;0.80;;;0.80;;
14181;SDS011;7171;50.936;6.764;2022-09-03T03:27:25;0.80;;;0.77;;
14181;SDS011;7171;50.936;6.764;2022-09-03T03:29:51;0.70;;;0.70;;
14181;SDS011;7171;50.936;6.764;2022-09-03T03:32:18;0.80;;;0.80;;
14181;SDS011;7171;50.936;6.764;2022-09-03T03:34:45;0.98;;;0.88;;
14181;SDS011;7171;50.936;6.764;2022-09-03T03:37:12;0.82;;;0.77;;
14181;SDS011;7171;50.936;6.764;2022-09-03T03:39:39;0.80;;;0.80;;
14181;SDS011;7171;50.936;6.764;2022-09-03T03:42:05;0.70;;;0.70;;
14181;SDS011;7171;50.936;6.764;2022-09-03T03:44:34;0.85;;;0.85;;
14181;SDS011;7171;50.936;6.764;2022-09-03T03:47:01;0.80;;;0.80;;
14181;SDS011;7171;50.936;6.764;2022-09-03T03:49:30;0.63;;;0.63;;
14181;SDS011;7171;50.936;6.764;2022-09-03T03:51:56;0.88;;;0.88;;
14181;SDS011;7171;50.936;6.764;2022-09-03T03:54:23;1.40;;;1.00;;
14181;SDS011;7171;50.936;6.764;2022-09-03T03:56:50;1.10;;;1.00;;
14181;SDS011;7171;50.936;6.764;2022-09-03T03:59:17;0.80;;;0.80;;
14181;SDS011;7171;50.936;6.764;2022-09-03T04:01:45;1.00;;;0.80;;
14181;SDS011;7171;50.936;6.764;2022-09-03T04:04:14;1.00;;;0.90;;
14181;SDS011;7171;50.936;6.764;2022-09-03T04:06:41;0.70;;;0.70;;
14181;SDS011;7171;50.936;6.764;2022-09-03T04:09:08;1.00;;;0.70;;
14181;SDS011;7171;50.936;6.764;2022-09-03T04:11:35;1.00;;;0.88;;
14181;SDS011;7171;50.936;6.764;2022-09-03T04:14:01;1.20;;;1.10;;
14181;SDS011;7171;50.936;6.764;2022-09-03T04:16:28;0.77;;;0.77;;
14181;SDS011;7171;50.936;6.764;2022-09-03T04:18:58;0.90;;;0.80;;
14181;SDS011;7171;50.936;6.764;2022-09-03T04:21:26;0.80;;;0.80;;
14181;SDS011;7171;50.936;6.764;2022-09-03T04:23:54;0.80;;;0.80;;
14181;SDS011;7171;50.936;6.764;2022-09-03T04:26:22;0.52;;;0.52;;
14181;SDS011;7171;50.936;6.764;2022-09-03T04:28:50;0.68;;;0.68;;
14181;SDS011;7171;50.936;6.764;2022-09-03T04:31:18;0.90;;;0.85;;
14181;SDS011;7171;50.936;6.764;2022-09-03T04:33:45;0.80;;;0.80;;
14181;SDS011;7171;50.936;6.764;2022-09-03T04:36:14;0.68;;;0.68;;
14181;SDS011;7171;50.936;6.764;2022-09-03T04:38:42;0.60;;;0.60;;
14181;SDS011;7171;50.936;6.764;2022-09-03T04:41:11;0.70;;;0.70;;
14181;SDS011;7171;50.936;6.764;2022-09-03T04:43:39;0.65;;;0.65;;
14181;SDS011;7171;50.936;6.764;2022-09-03T04:46:07;0.70;;;0.70;;
14181;SDS011;7171;50.936;6.764;2022-09-03T04:48:35;1.00;;;0.90;;
14181;SDS011;7171;50.936;6.764;2022-09-03T04:51:04;1.10;;;1.00;;
14181;SDS011;7171;50.936;6.764;2022-09-03T04:53:33;0.95;;;0.75;;
14181;SDS011;7171;50.936;6.764;2022-09-03T04:56:02;0.70;;;0.70;;
14181;SDS011;7171;50.936;6.764;2022-09-03T04:58:36;0.65;;;0.65;;
14181;SDS011;7171;50.936;6.764;2022-09-03T05:01:06;0.80;;;0.80;;
14181;SDS011;7171;50.936;6.764;2022-09-03T05:03:33;0.90;;;0.90;;
14181;SDS011;7171;50.936;6.764;2022-09-03T05:06:01;0.85;;;0.85;;
14181;SDS011;7171;50.936;6.764;2022-09-03T05:08:30;0.80;;;0.80;;
14181;SDS011;7171;50.936;6.764;2022-09-03T05:11:02;1.42;;;0.93;;
14181;SDS011;7171;50.936;6.764;2022-09-03T05:13:30;1.10;;;0.95;;
14181;SDS011;7171;50.936;6.764;2022-09-03T05:15:58;1.50;;;0.90;;
14181;SDS011;7171;50.936;6.764;2022-09-03T05:18:25;1.02;;;0.73;;
14181;SDS011;7171;50.936;6.764;2022-09-03T05:20:56;0.80;;;0.80;;
14181;SDS011;7171;50.936;6.764;2022-09-03T05:23:24;0.60;;;0.60;;
14181;SDS011;7171;50.936;6.764;2022-09-03T05:25:53;2.05;;;0.70;;
14181;SDS011;7171;50.936;6.764;2022-09-03T05:28:23;1.00;;;0.90;;
14181;SDS011;7171;50.936;6.764;2022-09-03T05:31:01;1.13;;;1.02;;
14181;SDS011;7171;50.936;6.764;2022-09-03T05:33:32;0.80;;;0.80;;
14181;SDS011;7171;50.936;6.764;2022-09-03T05:35:59;1.15;;;1.05;;
14181;SDS011;7171;50.936;6.764;2022-09-03T05:38:27;0.98;;;0.88;;
14181;SDS011;7171;50.936;6.764;2022-09-03T05:40:56;1.00;;;0.90;;
14181;SDS011;7171;50.936;6.764;2022-09-03T05:43:25;0.90;;;0.90;;
14181;SDS011;7171;50.936;6.764;2022-09-03T05:45:55;0.80;;;0.80;;
14181;SDS011;7171;50.936;6.764;2022-09-03T05:48:22;0.80;;;0.80;;
14181;SDS011;7171;50.936;6.764;2022-09-03T05:50:49;0.90;;;0.80;;
14181;SDS011;7171;50.936;6.764;2022-09-03T05:53:24;0.90;;;0.90;;
14181;SDS011;7171;50.936;6.764;2022-09-03T05:55:53;1.30;;;0.80;;
14181;SDS011;7171;50.936;6.764;2022-09-03T05:58:21;0.88;;;0.88;;
14181;SDS011;7171;50.936;6.764;2022-09-03T06:00:50;0.80;;;0.80;;
14181;SDS011;7171;50.936;6.764;2022-09-03T06:03:17;0.80;;;0.80;;
14181;SDS011;7171;50.936;6.764;2022-09-03T06:05:48;0.80;;;0.80;;
14181;SDS011;7171;50.936;6.764;2022-09-03T06:08:15;0.93;;;0.80;;
14181;SDS011;7171;50.936;6.764;2022-09-03T06:10:42;0.70;;;0.70;;
14181;SDS011;7171;50.936;6.764;2022-09-03T06:13:09;1.35;;;0.80;;
14181;SDS011;7171;50.936;6.764;2022-09-03T06:15:36;0.80;;;0.80;;
14181;SDS011;7171;50.936;6.764;2022-09-03T06:18:04;1.00;;;0.90;;
14181;SDS011;7171;50.936;6.764;2022-09-03T06:20:31;0.80;;;0.80;;
14181;SDS011;7171;50.936;6.764;2022-09-03T06:22:58;1.08;;;0.98;;
14181;SDS011;7171;50.936;6.764;2022-09-03T06:25:25;1.33;;;0.90;;
14181;SDS011;7171;50.936;6.764;2022-09-03T06:27:52;0.88;;;0.80;;
14181;SDS011;7171;50.936;6.764;2022-09-03T06:30:19;1.38;;;1.17;;
14181;SDS011;7171;50.936;6.764;2022-09-03T06:32:48;1.02;;;0.90;;
14181;SDS011;7171;50.936;6.764;2022-09-03T06:35:17;0.82;;;0.82;;
14181;SDS011;7171;50.936;6.764;2022-09-03T06:37:44;2.20;;;0.73;;
14181;SDS011;7171;50.936;6.764;2022-09-03T06:40:11;0.85;;;0.85;;
14181;SDS011;7171;50.936;6.764;2022-09-03T06:42:38;1.02;;;0.88;;
14181;SDS011;7171;50.936;6.764;2022-09-03T06:45:05;1.05;;;0.88;;
14181;SDS011;7171;50.936;6.764;2022-09-03T06:47:33;0.88;;;0.80;;
14181;SDS011;7171;50.936;6.764;2022-09-03T06:50:00;1.05;;;0.95;;
14181;SDS011;7171;50.936;6.764;2022-09-03T06:52:29;0.68;;;0.68;;
14181;SDS011;7171;50.936;6.764;2022-09-03T06:54:55;0.70;;;0.70;;
14181;SDS011;7171;50.936;6.764;2022-09-03T06:57:22;0.80;;;0.80;;
14181;SDS011;7171;50.936;6.764;2022-09-03T06:59:49;0.82;;;0.80;;
14181;SDS011;7171;50.936;6.764;2022-09-03T07:02:17;0.88;;;0.82;;
14181;SDS011;7171;50.936;6.764;2022-09-03T07:04:46;0.82;;;0.82;;
14181;SDS011;7171;50.936;6.764;2022-09-03T07:07:14;0.80;;;0.80;;
14181;SDS011;7171;50.936;6.764;2022-09-03T07:09:42;0.85;;;0.82;;
14181;SDS011;7171;50.936;6.764;2022-09-03T07:12:09;1.27;;;0.80;;
14181;SDS011;7171;50.936;6.764;2022-09-03T07:14:36;1.00;;;0.82;;
14181;SDS011;7171;50.936;6.764;2022-09-03T07:17:03;1.00;;;0.90;;
14181;SDS011;7171;50.936;6.764;2022-09-03T07:19:30;1.55;;;0.95;;
14181;SDS011;7171;50.936;6.764;2022-09-03T07:21:56;2.17;;;1.13;;
14181;SDS011;7171;50.936;6.764;2022-09-03T07:24:23;1.75;;;0.85;;
14181;SDS011;7171;50.936;6.764;2022-09-03T07:26:53;0.70;;;0.70;;
14181;SDS011;7171;50.936;6.764;2022-09-03T07:29:22;0.80;;;0.70;;
14181;SDS011;7171;50.936;6.764;2022-09-03T07:31:49;0.80;;;0.80;;
14181;SDS011;7171;50.936;6.764;2022-09-03T07:34:16;1.67;;;1.20;;
14181;SDS011;7171;50.936;6.764;2022-09-03T07:36:44;0.80;;;0.73;;
14181;SDS011;7171;50.936;6.764;2022-09-03T07:39:15;1.20;;;0.82;;
14181;SDS011;7171;50.936;6.764;2022-09-03T07:41:43;0.63;;;0.63;;
14181;SDS011;7171;50.936;6.764;2022-09-03T07:44:11;0.90;;;0.90;;
14181;SDS011;7171;50.936;6.764;2022-09-03T07:46:39;0.90;;;0.80;;
14181;SDS011;7171;50.936;6.764;2022-09-03T07:49:07;0.80;;;0.80;;
14181;SDS011;7171;50.936;6.764;2022-09-03T07:51:35;1.15;;;0.98;;
14181;SDS011;7171;50.936;6.764;2022-09-03T07:54:04;0.70;;;0.70;;
14181;SDS011;7171;50.936;6.764;2022-09-03T07:56:34;1.42;;;0.82;;
14181;SDS011;7171;50.936;6.764;2022-09-03T07:59:01;0.95;;;0.88;;
14181;SDS011;7171;50.936;6.764;2022-09-03T08:01:30;1.00;;;0.77;;
14181;SDS011;7171;50.936;6.764;2022-09-03T08:03:58;1.05;;;0.70;;
14181;SDS011;7171;50.936;6.764;2022-09-03T08:06:27;0.80;;;0.80;;
14181;SDS011;7171;50.936;6.764;2022-09-03T08:08:55;2.50;;;0.93;;
14181;SDS011;7171;50.936;6.764;2022-09-03T08:11:24;1.15;;;0.90;;
14181;SDS011;7171;50.936;6.764;2022-09-03T08:13:53;0.90;;;0.90;;
14181;SDS011;7171;50.936;6.764;2022-09-03T08:16:25;2.97;;;0.98;;
14181;SDS011;7171;50.936;6.764;2022-09-03T08:18:54;0.82;;;0.82;;
14181;SDS011;7171;50.936;6.764;2022-09-03T08:21:21;0.75;;;0.70;;
14181;SDS011;7171;50.936;6.764;2022-09-03T08:23:49;1.02;;;0.90;;
14181;SDS011;7171;50.936;6.764;2022-09-03T08:26:19;1.25;;;0.77;;
14181;SDS011;7171;50.936;6.764;2022-09-03T08:28:47;1.63;;;1.00;;
14181;SDS011;7171;50.936;6.764;2022-09-03T08:31:14;1.42;;;0.90;;
14181;SDS011;7171;50.936;6.764;2022-09-03T08:33:43;0.88;;;0.88;;
14181;SDS011;7171;50.936;6.764;2022-09-03T08:36:13;0.80;;;0.80;;
14181;SDS011;7171;50.936;6.764;2022-09-03T08:38:42;0.80;;;0.77;;
14181;SDS011;7171;50.936;6.764;2022-09-03T08:41:11;0.60;;;0.60;;
14181;SDS011;7171;50.936;6.764;2022-09-03T08:43:51;0.98;;;0.90;;
14181;SDS011;7171;50.936;6.764;2022-09-03T08:46:31;0.80;;;0.80;;
14181;SDS011;7171;50.936;6.764;2022-09-03T08:49:05;1.05;;;0.98;;
14181;SDS011;7171;50.936;6.764;2022-09-03T08:51:37;1.02;;;0.90;;
14181;SDS011;7171;50.936;6.764;2022-09-03T08:54:05;0.63;;;0.63;;
14181;SDS011;7171;50.936;6.764;2022-09-03T08:56:36;0.80;;;0.80;;
14181;SDS011;7171;50.936;6.764;2022-09-03T08:59:05;1.27;;;0.90;;
14181;SDS011;7171;50.936;6.764;2022-09-03T09:01:35;1.08;;;0.95;;
14181;SDS011;7171;50.936;6.764;2022-09-03T09:04:10;0.77;;;0.77;;
14181;SDS011;7171;50.936;6.764;2022-09-03T09:06:48;0.68;;;0.68;;
14181;SDS011;7171;50.936;6.764;2022-09-03T09:09:23;1.10;;;1.00;;
14181;SDS011;7171;50.936;6.764;2022-09-03T09:11:57;0.80;;;0.80;;
14181;SDS011;7171;50.936;6.764;2022-09-03T09:14:32;1.17;;;1.08;;
14181;SDS011;7171;50.936;6.764;2022-09-03T09:17:07;2.35;;;0.98;;
14181;SDS011;7171;50.936;6.764;2022-09-03T09:19:47;1.23;;;0.90;;
14181;SDS011;7171;50.936;6.764;2022-09-03T09:22:25;1.40;;;1.00;;
14181;SDS011;7171;50.936;6.764;2022-09-03T09:24:56;1.20;;;1.10;;
14181;SDS011;7171;50.936;6.764;2022-09-03T09:27:26;1.08;;;0.82;;
14181;SDS011;7171;50.936;6.764;2022-09-03T09:29:54;1.77;;;1.10;;
14181;SDS011;7171;50.936;6.764;2022-09-03T09:32:26;0.85;;;0.85;;
14181;SDS011;7171;50.936;6.764;2022-09-03T09:34:53;1.52;;;1.00;;
14181;SDS011;7171;50.936;6.764;2022-09-03T09:37:20;1.13;;;1.02;;
14181;SDS011;7171;50.936;6.764;2022-09-03T09:39:55;2.65;;;0.80;;
14181;SDS011;7171;50.936;6.764;2022-09-03T09:42:23;2.40;;;0.98;;
14181;SDS011;7171;50.936;6.764;2022-09-03T09:44:51;1.17;;;1.08;;
14181;SDS011;7171;50.936;6.764;2022-09-03T09:47:22;1.00;;;0.90;;
14181;SDS011;7171;50.936;6.764;2022-09-03T09:49:53;1.95;;;0.80;;
14181;SDS011;7171;50.936;6.764;2022-09-03T09:52:21;0.88;;;0.88;;
14181;SDS011;7171;50.936;6.764;2022-09-03T09:54:50;0.98;;;0.90;;
14181;SDS011;7171;50.936;6.764;2022-09-03T09:57:22;0.70;;;0.70;;
14181;SDS011;7171;50.936;6.764;2022-09-03T10:00:00;1.70;;;1.00;;
14181;SDS011;7171;50.936;6.764;2022-09-03T10:02:33;1.00;;;0.80;;
14181;SDS011;7171;50.936;6.764;2022-09-03T10:05:11;1.13;;;1.00;;
14181;SDS011;7171;50.936;6.764;2022-09-03T10:07:39;0.88;;;0.88;;
14181;SDS011;7171;50.936;6.764;2022-09-03T10:10:13;2.35;;;1.00;;
14181;SDS011;7171;50.936;6.764;2022-09-03T10:12:44;1.63;;;1.10;;
14181;SDS011;7171;50.936;6.764;2022-09-03T10:15:18;1.15;;;1.05;;
14181;SDS011;7171;50.936;6.764;2022-09-03T10:17:52;1.10;;;1.00;;
14181;SDS011;7171;50.936;6.764;2022-09-03T10:20:25;1.38;;;1.10;;
14181;SDS011;7171;50.936;6.764;2022-09-03T10:23:06;1.20;;;1.10;;
14181;SDS011;7171;50.936;6.764;2022-09-03T10:25:39;1.10;;;1.00;;
14181;SDS011;7171;50.936;6.764;2022-09-03T10:28:19;1.10;;;1.00;;
14181;SDS011;7171;50.936;6.764;2022-09-03T10:31:08;0.82;;;0.82;;
14181;SDS011;7171;50.936;6.764;2022-09-03T10:33:46;1.33;;;1.13;;
14181;SDS011;7171;50.936;6.764;2022-09-03T10:36:17;0.93;;;0.93;;
14181;SDS011;7171;50.936;6.764;2022-09-03T10:38:47;1.98;;;0.93;;
14181;SDS011;7171;50.936;6.764;2022-09-03T10:41:24;1.33;;;1.23;;
14181;SDS011;7171;50.936;6.764;2022-09-03T10:44:06;0.88;;;0.88;;
14181;SDS011;7171;50.936;6.764;2022-09-03T10:46:53;1.10;;;1.00;;
14181;SDS011;7171;50.936;6.764;2022-09-03T10:49:29;1.52;;;0.98;;
14181;SDS011;7171;50.936;6.764;2022-09-03T10:52:10;1.15;;;1.02;;
14181;SDS011;7171;50.936;6.764;2022-09-03T10:54:49;1.27;;;1.15;;
14181;SDS011;7171;50.936;6.764;2022-09-03T10:57:30;1.30;;;1.20;;
14181;SDS011;7171;50.936;6.764;2022-09-03T11:00:05;0.90;;;0.90;;
14181;SDS011;7171;50.936;6.764;2022-09-03T11:05:40;1.33;;;1.15;;
14181;SDS011;7171;50.936;6.764;2022-09-03T11:08:20;1.27;;;1.02;;
14181;SDS011;7171;50.936;6.764;2022-09-03T11:10:53;1.50;;;1.38;;
14181;SDS011;7171;50.936;6.764;2022-09-03T11:13:26;1.65;;;1.23;;
14181;SDS011;7171;50.936;6.764;2022-09-03T11:16:02;1.33;;;1.20;;
14181;SDS011;7171;50.936;6.764;2022-09-03T11:18:37;1.70;;;1.30;;
14181;SDS011;7171;50.936;6.764;2022-09-03T11:21:10;1.88;;;1.42;;
14181;SDS011;7171;50.936;6.764;2022-09-03T11:23:40;1.13;;;1.10;;
14181;SDS011;7171;50.936;6.764;2022-09-03T11:26:10;1.05;;;0.95;;
14181;SDS011;7171;50.936;6.764;2022-09-03T11:28:40;1.50;;;1.38;;
14181;SDS011;7171;50.936;6.764;2022-09-03T11:31:15;1.92;;;1.30;;
14181;SDS011;7171;50.936;6.764;2022-09-03T11:33:48;1.50;;;1.10;;
14181;SDS011;7171;50.936;6.764;2022-09-03T11:36:22;1.50;;;1.40;;
14181;SDS011;7171;50.936;6.764;2022-09-03T11:38:54;1.90;;;1.48;;
14181;SDS011;7171;50.936;6.764;2022-09-03T11:41:25;1.40;;;1.30;;
14181;SDS011;7171;50.936;6.764;2022-09-03T11:43:52;1.38;;;1.27;;
14181;SDS011;7171;50.936;6.764;2022-09-03T11:46:28;1.35;;;1.20;;
14181;SDS011;7171;50.936;6.764;2022-09-03T11:48:56;1.55;;;1.17;;
14181;SDS011;7171;50.936;6.764;2022-09-03T11:51:36;1.33;;;1.23;;
14181;SDS011;7171;50.936;6.764;2022-09-03T11:54:06;0.98;;;0.98;;
14181;SDS011;7171;50.936;6.764;2022-09-03T11:56:50;3.10;;;1.30;;
14181;SDS011;7171;50.936;6.764;2022-09-03T11:59:28;1.42;;;1.33;;
14181;SDS011;7171;50.936;6.764;2022-09-03T12:01:57;1.33;;;1.23;;
14181;SDS011;7171;50.936;6.764;2022-09-03T12:04:29;1.80;;;1.50;;
14181;SDS011;7171;50.936;6.764;2022-09-03T12:07:09;1.48;;;1.38;;
14181;SDS011;7171;50.936;6.764;2022-09-03T12:10:02;1.30;;;1.20;;
14181;SDS011;7171;50.936;6.764;2022-09-03T12:12:52;1.42;;;1.33;;
14181;SDS011;7171;50.936;6.764;2022-09-03T12:15:51;1.23;;;1.13;;
14181;SDS011;7171;50.936;6.764;2022-09-03T12:18:26;1.52;;;1.20;;
14181;SDS011;7171;50.936;6.764;2022-09-03T12:20:59;1.17;;;1.08;;
14181;SDS011;7171;50.936;6.764;2022-09-03T12:23:28;1.27;;;1.17;;
14181;SDS011;7171;50.936;6.764;2022-09-03T12:25:57;2.05;;;1.42;;
14181;SDS011;7171;50.936;6.764;2022-09-03T12:28:27;1.40;;;1.30;;
14181;SDS011;7171;50.936;6.764;2022-09-03T12:31:04;1.20;;;1.10;;
14181;SDS011;7171;50.936;6.764;2022-09-03T12:33:46;1.38;;;1.02;;
14181;SDS011;7171;50.936;6.764;2022-09-03T12:36:15;1.30;;;1.20;;
14181;SDS011;7171;50.936;6.764;2022-09-03T12:38:42;1.65;;;1.45;;
14181;SDS011;7171;50.936;6.764;2022-09-03T12:43:55;2.40;;;1.33;;
14181;SDS011;7171;50.936;6.764;2022-09-03T12:46:24;1.35;;;1.15;;
14181;SDS011;7171;50.936;6.764;2022-09-03T12:48:54;1.92;;;1.50;;
14181;SDS011;7171;50.936;6.764;2022-09-03T12:51:21;1.38;;;1.27;;
14181;SDS011;7171;50.936;6.764;2022-09-03T12:53:49;1.58;;;1.48;;
14181;SDS011;7171;50.936;6.764;2022-09-03T12:56:18;1.50;;;1.35;;
14181;SDS011;7171;50.936;6.764;2022-09-03T12:58:48;1.50;;;1.40;;
14181;SDS011;7171;50.936;6.764;2022-09-03T13:01:20;1.38;;;1.10;;
14181;SDS011;7171;50.936;6.764;2022-09-03T13:03:49;2.42;;;1.65;;
14181;SDS011;7171;50.936;6.764;2022-09-03T13:06:23;1.38;;;1.27;;
14181;SDS011;7171;50.936;6.764;2022-09-03T13:08:53;1.85;;;1.50;;
14181;SDS011;7171;50.936;6.764;2022-09-03T13:11:24;1.30;;;1.20;;
14181;SDS011;7171;50.936;6.764;2022-09-03T13:13:53;1.42;;;1.33;;
14181;SDS011;7171;50.936;6.764;2022-09-03T13:16:28;2.28;;;1.40;;
14181;SDS011;7171;50.936;6.764;2022-09-03T13:19:24;1.27;;;1.00;;
14181;SDS011;7171;50.936;6.764;2022-09-03T13:21:59;1.30;;;1.20;;
14181;SDS011;7171;50.936;6.764;2022-09-03T13:24:39;1.67;;;1.30;;
14181;SDS011;7171;50.936;6.764;2022-09-03T13:27:21;1.67;;;1.42;;
14181;SDS011;7171;50.936;6.764;2022-09-03T13:30:00;1.90;;;1.23;;
14181;SDS011;7171;50.936;6.764;2022-09-03T13:32:40;1.83;;;1.48;;
14181;SDS011;7171;50.936;6.764;2022-09-03T13:35:16;1.30;;;1.20;;
14181;SDS011;7171;50.936;6.764;2022-09-03T13:37:54;1.60;;;1.50;;
14181;SDS011;7171;50.936;6.764;2022-09-03T13:40:31;1.05;;;1.02;;
14181;SDS011;7171;50.936;6.764;2022-09-03T13:43:02;1.30;;;1.20;;
14181;SDS011;7171;50.936;6.764;2022-09-03T13:45:37;1.58;;;1.48;;
14181;SDS011;7171;50.936;6.764;2022-09-03T13:48:09;1.40;;;1.30;;
14181;SDS011;7171;50.936;6.764;2022-09-03T13:50:58;1.42;;;1.33;;
14181;SDS011;7171;50.936;6.764;2022-09-03T13:53:35;1.38;;;1.27;;
14181;SDS011;7171;50.936;6.764;2022-09-03T13:56:13;1.38;;;1.27;;
14181;SDS011;7171;50.936;6.764;2022-09-03T13:58:47;2.13;;;1.40;;
14181;SDS011;7171;50.936;6.764;2022-09-03T14:01:20;1.67;;;1.58;;
14181;SDS011;7171;50.936;6.764;2022-09-03T14:03:51;1.45;;;1.30;;
14181;SDS011;7171;50.936;6.764;2022-09-03T14:06:29;1.58;;;1.48;;
14181;SDS011;7171;50.936;6.764;2022-09-03T14:09:08;1.45;;;1.35;;
14181;SDS011;7171;50.936;6.764;2022-09-03T14:11:43;1.70;;;1.48;;
14181;SDS011;7171;50.936;6.764;2022-09-03T14:14:19;1.40;;;1.30;;
14181;SDS011;7171;50.936;6.764;2022-09-03T14:16:56;1.60;;;1.50;;
14181;SDS011;7171;50.936;6.764;2022-09-03T14:19:31;1.73;;;1.35;;
14181;SDS011;7171;50.936;6.764;2022-09-03T14:22:04;1.65;;;1.40;;
14181;SDS011;7171;50.936;6.764;2022-09-03T14:24:38;1.77;;;1.60;;
14181;SDS011;7171;50.936;6.764;2022-09-03T14:27:09;1.30;;;1.20;;
14181;SDS011;7171;50.936;6.764;2022-09-03T14:29:36;2.13;;;1.30;;
14181;SDS011;7171;50.936;6.764;2022-09-03T14:32:11;1.70;;;1.50;;
14181;SDS011;7171;50.936;6.764;2022-09-03T14:34:59;1.23;;;1.13;;
14181;SDS011;7171;50.936;6.764;2022-09-03T14:38:03;1.80;;;1.63;;
14181;SDS011;7171;50.936;6.764;2022-09-03T14:41:04;1.63;;;1.52;;
14181;SDS011;7171;50.936;6.764;2022-09-03T14:43:47;1.40;;;1.30;;
14181;SDS011;7171;50.936;6.764;2022-09-03T14:46:38;1.23;;;1.13;;
14181;SDS011;7171;50.936;6.764;2022-09-03T14:49:33;2.35;;;1.40;;
14181;SDS011;7171;50.936;6.764;2022-09-03T14:55:14;1.25;;;1.05;;
14181;SDS011;7171;50.936;6.764;2022-09-03T14:58:00;1.83;;;1.50;;
14181;SDS011;7171;50.936;6.764;2022-09-03T15:00:43;1.63;;;1.42;;
14181;SDS011;7171;50.936;6.764;2022-09-03T15:03:33;1.35;;;1.25;;
14181;SDS011;7171;50.936;6.764;2022-09-03T15:06:27;1.40;;;1.23;;
14181;SDS011;7171;50.936;6.764;2022-09-03T15:09:10;1.42;;;1.30;;
14181;SDS011;7171;50.936;6.764;2022-09-03T15:11:48;1.50;;;1.40;;
14181;SDS011;7171;50.936;6.764;2022-09-03T15:14:21;1.70;;;1.60;;
14181;SDS011;7171;50.936;6.764;2022-09-03T15:16:54;1.48;;;1.38;;
14181;SDS011;7171;50.936;6.764;2022-09-03T15:22:22;1.35;;;1.25;;
14181;SDS011;7171;50.936;6.764;2022-09-03T15:25:04;1.50;;;1.40;;
14181;SDS011;7171;50.936;6.764;2022-09-03T15:27:42;1.50;;;1.30;;
14181;SDS011;7171;50.936;6.764;2022-09-03T15:30:23;3.67;;;1.52;;
14181;SDS011;7171;50.936;6.764;2022-09-03T15:33:02;2.40;;;1.30;;
14181;SDS011;7171;50.936;6.764;2022-09-03T15:35:51;1.20;;;1.10;;
14181;SDS011;7171;50.936;6.764;2022-09-03T15:38:34;1.45;;;1.35;;
14181;SDS011;7171;50.936;6.764;2022-09-03T15:41:08;2.03;;;1.60;;
14181;SDS011;7171;50.936;6.764;2022-09-03T15:43:42;1.55;;;1.45;;